createdAt,value
2023-02-14T00:00:22.609Z,1.47
2023-02-14T00:02:49.450Z,1.47
2023-02-14T00:05:16.123Z,1.47
2023-02-14T00:07:42.552Z,1.46
2023-02-14T00:10:09.881Z,1.46
2023-02-14T00:12:36.268Z,1.41
2023-02-14T00:15:21.329Z,1.35
2023-02-14T00:17:48.834Z,1.32
2023-02-14T00:20:15.208Z,1.31
2023-02-14T00:22:41.589Z,1.30
2023-02-14T00:25:08.202Z,1.27
2023-02-14T00:27:34.571Z,1.27
2023-02-14T00:30:02.516Z,1.29
2023-02-14T00:32:29.907Z,1.31
2023-02-14T00:34:56.445Z,1.29
2023-02-14T00:37:23.062Z,1.31
2023-02-14T00:39:49.573Z,1.34
2023-02-14T00:42:16.312Z,1.37
2023-02-14T00:44:42.665Z,1.39
2023-02-14T00:47:09.205Z,1.38
2023-02-14T00:49:35.614Z,1.38
2023-02-14T00:52:02.173Z,1.40
2023-02-14T00:54:28.520Z,1.40
2023-02-14T00:56:55.029Z,1.39
2023-02-14T00:59:21.369Z,1.44
2023-02-14T01:01:47.883Z,1.44
2023-02-14T01:04:14.293Z,1.40
2023-02-14T01:06:40.635Z,1.40
2023-02-14T01:09:07.164Z,1.38
2023-02-14T01:11:33.524Z,1.39
2023-02-14T01:14:00.177Z,1.42
2023-02-14T01:16:27.286Z,1.45
2023-02-14T01:18:53.923Z,1.50
2023-02-14T01:21:25.291Z,1.55
2023-02-14T01:23:54.205Z,1.59
2023-02-14T01:26:21.073Z,1.60
2023-02-14T01:28:47.627Z,1.64
2023-02-14T01:31:18.385Z,1.66
2023-02-14T01:33:45.682Z,1.70
2023-02-14T01:36:32.371Z,1.74
2023-02-14T01:39:00.669Z,1.77
2023-02-14T01:41:28.390Z,1.78
2023-02-14T01:44:14.005Z,1.77
2023-02-14T01:46:41.201Z,1.74
2023-02-14T01:49:11.234Z,1.71
2023-02-14T01:51:38.707Z,1.70
2023-02-14T01:54:06.271Z,1.64
2023-02-14T01:56:38.148Z,1.60
2023-02-14T01:59:05.856Z,1.53
2023-02-14T02:01:32.380Z,1.48
2023-02-14T02:04:01.380Z,1.42
2023-02-14T02:06:48.605Z,1.37
2023-02-14T02:09:42.272Z,1.31
2023-02-14T02:12:08.886Z,1.24
2023-02-14T02:14:35.237Z,1.21
2023-02-14T02:17:16.927Z,1.20
2023-02-14T02:20:20.566Z,1.17
2023-02-14T02:23:05.370Z,1.15
2023-02-14T02:25:50.730Z,1.16
2023-02-14T02:28:26.202Z,1.13
2023-02-14T02:31:12.780Z,1.10
2023-02-14T02:34:01.202Z,1.04
2023-02-14T02:36:36.971Z,1.01
2023-02-14T02:39:06.272Z,1.00
2023-02-14T02:41:49.069Z,0.98
2023-02-14T02:44:15.394Z,0.98
2023-02-14T02:47:04.222Z,0.97
2023-02-14T02:49:55.173Z,0.98
2023-02-14T02:53:06.174Z,0.97
2023-02-14T02:56:22.446Z,0.92
2023-02-14T02:59:02.831Z,0.89
2023-02-14T03:01:34.594Z,0.92
2023-02-14T03:04:21.895Z,0.86
2023-02-14T03:06:48.401Z,0.89
2023-02-14T03:09:20.956Z,0.87
2023-02-14T03:11:57.358Z,0.83
2023-02-14T03:14:32.513Z,0.82
2023-02-14T03:17:06.221Z,0.80
2023-02-14T03:20:11.111Z,0.75
2023-02-14T03:22:40.636Z,0.74
2023-02-14T03:25:17.101Z,0.73
2023-02-14T03:28:20.327Z,0.72
2023-02-14T03:31:15.908Z,0.72
2023-02-14T03:33:57.263Z,0.68
2023-02-14T03:36:35.261Z,0.66
2023-02-14T03:39:24.192Z,0.63
2023-02-14T03:41:53.439Z,0.60
2023-02-14T03:44:21.119Z,0.62
2023-02-14T03:46:51.584Z,0.62
2023-02-14T03:49:20.562Z,0.63
2023-02-14T03:51:48.623Z,0.61
2023-02-14T03:54:15.016Z,0.64
2023-02-14T03:57:07.337Z,0.62
2023-02-14T03:59:33.864Z,0.60
2023-02-14T04:02:08.854Z,0.62
2023-02-14T04:04:37.601Z,0.60
2023-02-14T04:07:17.747Z,0.59
2023-02-14T04:09:44.474Z,0.58
2023-02-14T04:12:10.916Z,0.52
2023-02-14T04:14:37.410Z,0.52
2023-02-14T04:17:22.523Z,0.53
2023-02-14T04:19:48.869Z,0.51
2023-02-14T04:22:15.456Z,0.53
2023-02-14T04:24:42.010Z,0.52
2023-02-14T04:27:11.206Z,0.53
2023-02-14T04:29:45.805Z,0.51
2023-02-14T04:32:14.324Z,0.51
2023-02-14T04:34:40.857Z,0.53
2023-02-14T04:37:07.548Z,0.50
2023-02-14T04:39:34.007Z,0.48
2023-02-14T04:42:00.384Z,0.50
2023-02-14T04:44:27.047Z,0.47
2023-02-14T04:46:53.510Z,0.52
2023-02-14T04:49:20.001Z,0.50
2023-02-14T04:51:46.446Z,0.46
2023-02-14T04:54:12.821Z,0.45
2023-02-14T04:56:39.171Z,0.45
2023-02-14T04:59:05.806Z,0.44
2023-02-14T05:01:32.192Z,0.45
2023-02-14T05:03:58.718Z,0.43
2023-02-14T05:06:25.180Z,0.43
2023-02-14T05:08:51.816Z,0.45
2023-02-14T05:11:18.192Z,0.39
2023-02-14T05:13:44.744Z,0.39
2023-02-14T05:16:11.140Z,0.41
2023-02-14T05:18:37.529Z,0.41
2023-02-14T05:21:04.220Z,0.40
2023-02-14T05:23:30.603Z,0.40
2023-02-14T05:25:57.157Z,0.39
2023-02-14T05:28:23.514Z,0.32
2023-02-14T05:30:50.810Z,0.42
2023-02-14T05:33:17.228Z,0.47
2023-02-14T05:35:43.761Z,0.50
2023-02-14T05:38:10.256Z,0.50
2023-02-14T05:40:36.627Z,0.55
2023-02-14T05:43:02.961Z,0.54
2023-02-14T05:45:29.491Z,0.47
2023-02-14T05:47:55.832Z,0.50
2023-02-14T05:50:22.200Z,0.49
2023-02-14T05:52:48.726Z,0.51
2023-02-14T05:55:15.096Z,0.54
2023-02-14T05:57:42.072Z,0.60
2023-02-14T06:00:09.257Z,0.64
2023-02-14T06:02:35.674Z,0.68
2023-02-14T06:05:02.030Z,0.69
2023-02-14T06:07:28.420Z,0.71
2023-02-14T06:09:54.769Z,0.70
2023-02-14T06:12:21.215Z,0.72
2023-02-14T06:14:47.556Z,0.73
2023-02-14T06:17:13.910Z,0.76
2023-02-14T06:19:40.303Z,0.80
2023-02-14T06:22:06.654Z,0.82
2023-02-14T06:24:33.037Z,0.84
2023-02-14T06:26:59.897Z,0.74
2023-02-14T06:29:26.433Z,0.73
2023-02-14T06:31:52.891Z,0.78
2023-02-14T06:34:19.513Z,0.77
2023-02-14T06:36:45.868Z,0.83
2023-02-14T06:39:12.236Z,0.84
2023-02-14T06:41:38.609Z,0.85
2023-02-14T06:44:05.204Z,0.85
2023-02-14T06:46:31.617Z,0.89
2023-02-14T06:48:58.039Z,0.93
2023-02-14T06:51:24.713Z,0.97
2023-02-14T06:53:51.143Z,0.95
2023-02-14T06:56:17.691Z,0.90
2023-02-14T06:58:44.095Z,0.94
2023-02-14T07:01:10.737Z,1.00
2023-02-14T07:03:37.152Z,0.94
2023-02-14T07:06:03.837Z,0.97
2023-02-14T07:08:30.176Z,1.03
2023-02-14T07:10:57.934Z,1.05
2023-02-14T07:13:24.786Z,1.08
2023-02-14T07:15:51.273Z,1.12
2023-02-14T07:18:17.630Z,1.13
2023-02-14T07:20:44.956Z,1.11
2023-02-14T07:23:11.573Z,1.18
2023-02-14T07:25:37.945Z,1.21
2023-02-14T07:28:04.764Z,1.22
2023-02-14T07:30:31.543Z,1.23
2023-02-14T07:32:58.078Z,1.21
2023-02-14T07:35:24.434Z,1.24
2023-02-14T07:37:51.088Z,1.25
2023-02-14T07:40:17.628Z,1.29
2023-02-14T07:42:43.995Z,1.35
2023-02-14T07:45:21.276Z,1.29
2023-02-14T07:47:49.846Z,1.28
2023-02-14T07:50:16.593Z,1.35
2023-02-14T07:52:42.967Z,1.37
2023-02-14T07:55:09.497Z,1.34
2023-02-14T07:57:36.076Z,1.40
2023-02-14T08:00:03.822Z,1.41
2023-02-14T08:02:30.192Z,1.43
2023-02-14T08:04:56.786Z,1.43
2023-02-14T08:07:23.173Z,1.39
2023-02-14T08:09:49.534Z,1.44
2023-02-14T08:12:34.288Z,1.46
2023-02-14T08:15:20.650Z,1.52
2023-02-14T08:17:47.185Z,1.55
2023-02-14T08:20:13.554Z,1.54
2023-02-14T08:22:39.911Z,1.57
2023-02-14T08:25:06.546Z,1.63
2023-02-14T08:27:32.919Z,1.65
2023-02-14T08:29:59.310Z,1.72
2023-02-14T08:32:25.796Z,1.66
2023-02-14T08:34:52.294Z,1.65
2023-02-14T08:37:18.629Z,1.70
2023-02-14T08:39:45.074Z,1.77
2023-02-14T08:42:12.802Z,1.82
2023-02-14T08:44:39.157Z,1.86
2023-02-14T08:47:05.865Z,1.92
2023-02-14T08:49:32.239Z,1.98
2023-02-14T08:51:58.732Z,2.07
2023-02-14T08:54:25.325Z,2.19
2023-02-14T08:56:51.703Z,2.32
2023-02-14T08:59:18.059Z,2.38
2023-02-14T09:01:44.592Z,2.42
2023-02-14T09:04:11.091Z,2.49
2023-02-14T09:06:38.823Z,2.47
2023-02-14T09:09:06.447Z,2.49
2023-02-14T09:11:32.866Z,2.49
2023-02-14T09:13:59.296Z,2.55
2023-02-14T09:16:26.275Z,2.63
2023-02-14T09:18:53.122Z,2.65
2023-02-14T09:21:22.663Z,2.67
2023-02-14T09:23:49.209Z,2.82
2023-02-14T09:26:16.170Z,2.84
2023-02-14T09:28:42.617Z,2.89
2023-02-14T09:31:16.870Z,2.94
2023-02-14T09:33:44.396Z,2.97
2023-02-14T09:36:29.125Z,2.93
2023-02-14T09:38:55.476Z,2.93
2023-02-14T09:41:30.981Z,2.96
2023-02-14T09:44:10.965Z,3.01
2023-02-14T09:46:41.605Z,3.17
2023-02-14T09:49:10.989Z,3.29
2023-02-14T09:51:44.625Z,3.38
2023-02-14T09:54:21.993Z,3.42
2023-02-14T09:57:03.046Z,3.48
2023-02-14T09:59:31.006Z,3.58
2023-02-14T10:01:59.545Z,3.64
2023-02-14T10:04:32.042Z,3.67
2023-02-14T10:07:20.256Z,3.76
2023-02-14T10:09:49.610Z,3.79
2023-02-14T10:12:25.208Z,3.87
2023-02-14T10:14:52.966Z,3.90
2023-02-14T10:17:29.951Z,3.91
2023-02-14T10:19:58.171Z,3.97
2023-02-14T10:22:41.087Z,4.09
2023-02-14T10:25:23.033Z,4.17
2023-02-14T10:27:49.771Z,4.09
2023-02-14T10:30:17.170Z,4.08
2023-02-14T10:33:04.713Z,4.12
2023-02-14T10:35:49.931Z,4.17
2023-02-14T10:38:25.577Z,4.24
2023-02-14T10:41:03.858Z,4.34
2023-02-14T10:43:36.538Z,4.45
2023-02-14T10:46:24.960Z,4.55
2023-02-14T10:49:23.640Z,4.47
2023-02-14T10:51:57.581Z,4.49
2023-02-14T10:55:05.654Z,4.64
2023-02-14T10:57:34.257Z,4.80
2023-02-14T11:00:02.233Z,4.95
2023-02-14T11:02:42.615Z,5.02
2023-02-14T11:05:20.898Z,5.04
2023-02-14T11:07:48.335Z,5.13
2023-02-14T11:10:14.710Z,5.17
2023-02-14T11:12:41.597Z,5.15
2023-02-14T11:15:14.119Z,5.26
2023-02-14T11:17:41.027Z,5.33
2023-02-14T11:20:30.237Z,5.42
2023-02-14T11:22:56.981Z,5.54
2023-02-14T11:25:28.338Z,5.63
2023-02-14T11:28:01.875Z,5.78
2023-02-14T11:30:31.392Z,5.85
2023-02-14T11:32:57.880Z,5.91
2023-02-14T11:35:27.669Z,5.97
2023-02-14T11:37:55.596Z,6.01
2023-02-14T11:40:38.464Z,6.04
2023-02-14T11:43:14.230Z,6.14
2023-02-14T11:45:42.519Z,6.26
2023-02-14T11:48:16.179Z,6.34
2023-02-14T11:50:45.494Z,6.50
2023-02-14T11:53:12.495Z,6.61
2023-02-14T11:55:38.903Z,6.70
2023-02-14T11:58:05.931Z,6.73
2023-02-14T12:00:32.532Z,6.78
2023-02-14T12:02:59.926Z,6.84
2023-02-14T12:05:27.493Z,6.95
2023-02-14T12:07:58.922Z,6.97
2023-02-14T12:10:32.477Z,7.03
2023-02-14T12:13:03.611Z,7.19
2023-02-14T12:15:37.737Z,7.36
2023-02-14T12:18:28.777Z,7.44
2023-02-14T12:21:03.929Z,7.66
2023-02-14T12:23:33.457Z,7.78
2023-02-14T12:26:06.446Z,7.89
2023-02-14T12:28:39.355Z,7.95
2023-02-14T12:31:11.537Z,8.06
2023-02-14T12:33:39.653Z,8.11
2023-02-14T12:36:30.892Z,8.15
2023-02-14T12:39:10.110Z,8.33
2023-02-14T12:41:40.963Z,8.41
2023-02-14T12:44:08.372Z,8.50
2023-02-14T12:46:53.677Z,8.67
2023-02-14T12:49:47.552Z,8.63
2023-02-14T12:52:49.793Z,8.74
2023-02-14T12:55:38.929Z,8.85
2023-02-14T12:58:30.518Z,9.00
2023-02-14T13:01:28.683Z,9.12
2023-02-14T13:04:29.923Z,9.18
2023-02-14T13:07:14.632Z,9.28
2023-02-14T13:10:02.512Z,9.36
2023-02-14T13:12:38.424Z,9.44
2023-02-14T13:15:39.148Z,9.49
2023-02-14T13:18:15.722Z,9.96
2023-02-14T13:20:52.374Z,10.04
2023-02-14T13:23:22.970Z,9.91
2023-02-14T13:26:06.652Z,10.10
2023-02-14T13:28:33.053Z,10.38
2023-02-14T13:31:00.050Z,10.59
2023-02-14T13:33:38.262Z,10.42
2023-02-14T13:36:08.817Z,10.14
2023-02-14T13:38:45.203Z,9.99
2023-02-14T13:41:11.845Z,9.92
2023-02-14T13:43:51.485Z,9.87
2023-02-14T13:46:22.435Z,9.74
2023-02-14T13:49:00.488Z,9.70
2023-02-14T13:51:46.548Z,9.74
2023-02-14T13:54:29.563Z,9.70
2023-02-14T13:56:56.172Z,9.67
2023-02-14T13:59:30.324Z,9.65
2023-02-14T14:02:00.700Z,9.69
2023-02-14T14:04:31.605Z,9.79
2023-02-14T14:07:01.201Z,9.74
2023-02-14T14:09:42.789Z,9.78
2023-02-14T14:12:27.267Z,9.61
2023-02-14T14:15:05.896Z,9.49
2023-02-14T14:17:35.188Z,9.65
2023-02-14T14:20:02.633Z,9.49
2023-02-14T14:22:29.074Z,9.33
2023-02-14T14:25:00.982Z,9.33
2023-02-14T14:27:30.808Z,9.25
2023-02-14T14:30:27.165Z,9.06
2023-02-14T14:32:53.586Z,9.09
2023-02-14T14:35:23.638Z,8.95
2023-02-14T14:37:56.765Z,8.98
2023-02-14T14:40:34.170Z,9.07
2023-02-14T14:43:26.119Z,9.29
2023-02-14T14:45:53.281Z,9.25
2023-02-14T14:48:29.033Z,8.84
2023-02-14T14:50:55.466Z,8.46
2023-02-14T14:53:56.108Z,8.17
2023-02-14T14:56:27.287Z,7.96
2023-02-14T14:58:53.798Z,8.02
2023-02-14T15:01:39.403Z,8.22
2023-02-14T15:04:16.803Z,8.04
2023-02-14T15:06:43.513Z,7.66
2023-02-14T15:09:13.863Z,7.58
2023-02-14T15:11:59.228Z,7.47
2023-02-14T15:14:26.203Z,7.32
2023-02-14T15:16:52.698Z,7.25
2023-02-14T15:19:37.602Z,7.20
2023-02-14T15:22:29.651Z,7.05
2023-02-14T15:24:57.303Z,6.96
2023-02-14T15:27:25.450Z,6.81
2023-02-14T15:30:09.777Z,6.73
2023-02-14T15:32:36.376Z,6.70
2023-02-14T15:35:04.006Z,6.62
2023-02-14T15:37:30.482Z,6.57
2023-02-14T15:39:57.064Z,6.60
2023-02-14T15:42:32.803Z,6.58
2023-02-14T15:45:17.779Z,6.59
2023-02-14T15:47:45.416Z,6.45
2023-02-14T15:50:15.908Z,6.48
2023-02-14T15:52:42.300Z,6.49
2023-02-14T15:55:09.584Z,6.45
2023-02-14T15:57:35.932Z,6.40
2023-02-14T16:00:06.599Z,6.27
2023-02-14T16:02:37.655Z,6.21
2023-02-14T16:05:18.502Z,6.20
2023-02-14T16:08:07.714Z,6.14
2023-02-14T16:10:35.152Z,6.16
2023-02-14T16:13:01.737Z,6.18
2023-02-14T16:15:32.397Z,6.10
2023-02-14T16:17:59.685Z,6.01
2023-02-14T16:20:36.254Z,5.94
2023-02-14T16:23:18.017Z,5.92
2023-02-14T16:25:44.770Z,5.94
2023-02-14T16:28:11.151Z,5.92
2023-02-14T16:30:38.511Z,5.91
2023-02-14T16:33:06.759Z,5.88
2023-02-14T16:35:33.195Z,5.88
2023-02-14T16:37:59.559Z,5.87
2023-02-14T16:40:26.700Z,5.86
2023-02-14T16:42:53.194Z,5.83
2023-02-14T16:45:20.569Z,5.79
2023-02-14T16:47:47.495Z,5.64
2023-02-14T16:50:14.006Z,5.66
2023-02-14T16:52:40.369Z,5.61
2023-02-14T16:55:10.675Z,5.55
2023-02-14T16:57:40.572Z,5.47
2023-02-14T17:00:07.609Z,5.35
2023-02-14T17:02:34.648Z,5.27
2023-02-14T17:05:01.034Z,5.16
2023-02-14T17:07:28.589Z,5.05
2023-02-14T17:09:57.600Z,4.95
2023-02-14T17:12:26.628Z,4.90
2023-02-14T17:14:53.978Z,4.88
2023-02-14T17:17:20.445Z,4.80
2023-02-14T17:19:46.798Z,4.77
2023-02-14T17:22:13.490Z,4.74
2023-02-14T17:24:40.769Z,4.72
2023-02-14T17:27:08.460Z,4.75
2023-02-14T17:29:34.808Z,4.77
2023-02-14T17:32:01.334Z,4.74
2023-02-14T17:34:32.045Z,4.70
2023-02-14T17:36:58.756Z,4.71
2023-02-14T17:39:25.152Z,4.66
2023-02-14T17:41:53.033Z,4.66
2023-02-14T17:44:19.370Z,4.68
2023-02-14T17:46:45.908Z,4.63
2023-02-14T17:49:12.322Z,4.54
2023-02-14T17:51:38.672Z,4.49
2023-02-14T17:54:05.125Z,4.38
2023-02-14T17:56:31.494Z,4.31
2023-02-14T17:58:57.896Z,4.31
2023-02-14T18:01:26.338Z,4.31
2023-02-14T18:03:55.717Z,4.31
2023-02-14T18:06:22.100Z,4.26
2023-02-14T18:08:49.842Z,4.22
2023-02-14T18:11:16.879Z,4.23
2023-02-14T18:13:44.489Z,4.23
2023-02-14T18:16:12.859Z,4.18
2023-02-14T18:18:39.257Z,4.12
2023-02-14T18:21:07.170Z,4.06
2023-02-14T18:23:33.771Z,4.00
2023-02-14T18:26:04.073Z,3.95
2023-02-14T18:28:30.540Z,3.93
2023-02-14T18:31:02.730Z,3.95
2023-02-14T18:33:29.251Z,3.92
2023-02-14T18:35:55.584Z,3.88
2023-02-14T18:38:21.963Z,3.87
2023-02-14T18:40:48.312Z,3.82
2023-02-14T18:43:14.670Z,3.86
2023-02-14T18:45:41.104Z,3.80
2023-02-14T18:48:09.026Z,3.67
2023-02-14T18:50:35.402Z,3.63
2023-02-14T18:53:01.854Z,3.57
2023-02-14T18:55:28.821Z,3.44
2023-02-14T18:57:55.224Z,3.40
2023-02-14T19:00:22.139Z,3.38
2023-02-14T19:02:48.588Z,3.28
2023-02-14T19:05:14.962Z,3.26
2023-02-14T19:07:41.355Z,3.35
2023-02-14T19:10:08.487Z,3.37
2023-02-14T19:12:34.824Z,3.32
2023-02-14T19:15:01.515Z,3.25
2023-02-14T19:17:28.016Z,3.25
2023-02-14T19:19:54.456Z,3.20
2023-02-14T19:22:20.962Z,3.17
2023-02-14T19:24:48.209Z,3.09
2023-02-14T19:27:14.636Z,3.01
2023-02-14T19:29:41.118Z,2.90
2023-02-14T19:32:07.592Z,2.84
2023-02-14T19:34:34.640Z,2.82
2023-02-14T19:37:02.245Z,2.78
2023-02-14T19:39:32.016Z,2.70
2023-02-14T19:41:58.524Z,2.64
2023-02-14T19:44:25.835Z,2.55
2023-02-14T19:46:54.310Z,2.53
2023-02-14T19:49:21.054Z,2.47
2023-02-14T19:51:48.783Z,2.34
2023-02-14T19:54:15.715Z,2.36
2023-02-14T19:56:44.262Z,2.39
2023-02-14T19:59:11.205Z,2.41
2023-02-14T20:01:51.387Z,2.38
2023-02-14T20:04:22.848Z,2.34
2023-02-14T20:06:49.332Z,2.23
2023-02-14T20:09:16.053Z,2.20
2023-02-14T20:11:50.251Z,2.18
2023-02-14T20:14:20.124Z,2.15
2023-02-14T20:16:46.748Z,2.08
2023-02-14T20:19:16.503Z,2.03
2023-02-14T20:21:44.229Z,1.97
2023-02-14T20:24:12.253Z,2.00
2023-02-14T20:26:39.519Z,1.96
2023-02-14T20:29:06.333Z,1.92
2023-02-14T20:31:33.402Z,1.88
2023-02-14T20:33:59.985Z,1.84
2023-02-14T20:36:26.480Z,1.80
2023-02-14T20:38:56.374Z,1.77
2023-02-14T20:41:23.044Z,1.75
2023-02-14T20:43:49.384Z,1.74
2023-02-14T20:46:15.747Z,1.71
2023-02-14T20:48:42.312Z,1.68
2023-02-14T20:51:10.657Z,1.65
2023-02-14T20:53:37.052Z,1.65
2023-02-14T20:56:03.612Z,1.53
2023-02-14T20:58:30.930Z,1.52
2023-02-14T21:01:04.410Z,1.47
2023-02-14T21:03:32.198Z,1.41
2023-02-14T21:05:58.625Z,1.39
2023-02-14T21:08:25.028Z,1.38
2023-02-14T21:10:51.391Z,1.30
2023-02-14T21:13:17.732Z,1.28
2023-02-14T21:15:44.322Z,1.26
2023-02-14T21:18:10.696Z,1.23
2023-02-14T21:20:37.069Z,1.23
2023-02-14T21:23:03.438Z,1.28
2023-02-14T21:25:31.662Z,1.28
2023-02-14T21:27:58.113Z,1.27
2023-02-14T21:30:24.633Z,1.24
2023-02-14T21:32:50.993Z,1.22
2023-02-14T21:35:17.363Z,1.23
2023-02-14T21:37:43.896Z,1.22
2023-02-14T21:40:10.503Z,1.20
2023-02-14T21:42:36.905Z,1.17
2023-02-14T21:45:21.903Z,1.17
2023-02-14T21:48:08.257Z,1.16
2023-02-14T21:50:34.693Z,1.17
2023-02-14T21:53:01.177Z,1.13
2023-02-14T21:55:27.501Z,1.12
2023-02-14T21:57:53.990Z,1.13
2023-02-14T22:00:22.536Z,1.12
2023-02-14T22:02:49.052Z,1.09
2023-02-14T22:05:15.523Z,1.06
2023-02-14T22:07:42.007Z,1.08
2023-02-14T22:10:08.649Z,1.11
2023-02-14T22:12:35.018Z,1.10
2023-02-14T22:15:01.407Z,1.05
2023-02-14T22:17:27.921Z,1.03
2023-02-14T22:19:54.556Z,1.01
2023-02-14T22:22:20.923Z,1.03
2023-02-14T22:24:47.263Z,1.07
2023-02-14T22:27:13.802Z,1.07
2023-02-14T22:29:40.153Z,1.05
2023-02-14T22:32:06.602Z,0.95
2023-02-14T22:34:33.021Z,0.92
2023-02-14T22:36:59.465Z,0.93
2023-02-14T22:39:25.814Z,0.91
2023-02-14T22:41:52.371Z,0.87
2023-02-14T22:44:18.696Z,0.90
2023-02-14T22:46:45.092Z,0.95
2023-02-14T22:49:11.556Z,0.95
2023-02-14T22:51:39.214Z,0.91
2023-02-14T22:54:07.549Z,0.90
2023-02-14T22:56:37.046Z,0.84
2023-02-14T22:59:07.630Z,0.83
2023-02-14T23:01:34.541Z,0.83
2023-02-14T23:04:01.888Z,0.80
2023-02-14T23:06:29.350Z,0.76
2023-02-14T23:08:55.987Z,0.76
2023-02-14T23:11:26.716Z,0.74
2023-02-14T23:14:11.920Z,0.72
2023-02-14T23:16:57.307Z,0.68
2023-02-14T23:19:46.920Z,0.69
2023-02-14T23:22:21.502Z,0.64
2023-02-14T23:24:48.647Z,0.66
2023-02-14T23:27:15.248Z,0.68
2023-02-14T23:29:41.799Z,0.67
2023-02-14T23:32:08.286Z,0.69
2023-02-14T23:34:36.213Z,0.65
2023-02-14T23:37:03.289Z,0.64
2023-02-14T23:39:32.543Z,0.62
2023-02-14T23:41:58.926Z,0.57
2023-02-14T23:44:26.508Z,0.53
2023-02-14T23:46:55.636Z,0.53
2023-02-14T23:49:22.367Z,0.48
2023-02-14T23:51:50.156Z,0.48
2023-02-14T23:54:16.996Z,0.45
2023-02-14T23:56:43.676Z,0.44
2023-02-14T23:59:10.294Z,0.33
